createdAt,value
2018-11-27T00:00:33.831Z,7.53
2018-11-27T00:03:24.612Z,6.30
2018-11-27T00:06:15.529Z,8.10
2018-11-27T00:08:58.541Z,7.10
2018-11-27T00:11:49.566Z,6.43
2018-11-27T00:14:32.684Z,8.53
2018-11-27T00:17:23.699Z,7.73
2018-11-27T00:20:07.283Z,7.70
2018-11-27T00:22:58.059Z,9.47
2018-11-27T00:25:41.225Z,8.80
2018-11-27T00:28:32.003Z,9.10
2018-11-27T00:31:22.917Z,8.67
2018-11-27T00:34:13.866Z,9.17
2018-11-27T00:37:04.822Z,10.10
2018-11-27T00:39:46.474Z,13.30
2018-11-27T00:42:37.374Z,11.10
2018-11-27T00:45:20.936Z,13.17
2018-11-27T00:48:11.646Z,11.03
2018-11-27T00:50:54.691Z,13.80
2018-11-27T00:53:45.751Z,14.63
2018-11-27T00:56:28.289Z,14.73
2018-11-27T00:59:19.196Z,13.63
2018-11-27T01:02:00.838Z,17.30
2018-11-27T01:04:43.408Z,16.60
2018-11-27T01:07:34.351Z,15.47
2018-11-27T01:10:26.492Z,17.33
2018-11-27T01:13:17.431Z,21.00
2018-11-27T01:16:00.461Z,20.17
2018-11-27T01:18:51.371Z,19.43
2018-11-27T01:21:34.663Z,21.37
2018-11-27T01:24:25.602Z,21.47
2018-11-27T01:27:08.355Z,21.20
2018-11-27T01:29:59.244Z,22.20
2018-11-27T01:32:41.955Z,20.83
2018-11-27T01:35:32.991Z,23.37
2018-11-27T01:38:15.531Z,19.87
2018-11-27T01:41:06.267Z,21.13
2018-11-27T01:43:49.351Z,18.93
2018-11-27T01:46:40.273Z,21.57
2018-11-27T01:49:31.155Z,22.23
2018-11-27T01:52:22.075Z,23.30
2018-11-27T01:55:32.014Z,20.37
2018-11-27T01:58:22.949Z,22.80
2018-11-27T02:01:13.899Z,21.50
2018-11-27T02:04:04.948Z,24.83
2018-11-27T02:06:55.996Z,23.53
2018-11-27T02:13:01.518Z,24.77
2018-11-27T02:15:44.353Z,25.77
2018-11-27T02:18:35.257Z,26.07
2018-11-27T02:21:17.999Z,22.13
2018-11-27T02:24:09.233Z,27.90
2018-11-27T02:26:52.116Z,23.57
2018-11-27T02:29:43.032Z,27.07
2018-11-27T02:32:25.826Z,27.50
2018-11-27T02:35:35.624Z,29.10
2018-11-27T02:38:18.536Z,28.37
2018-11-27T02:41:09.388Z,29.23
2018-11-27T02:43:52.611Z,30.50
2018-11-27T02:46:43.602Z,28.17
2018-11-27T02:49:34.375Z,27.63
2018-11-27T02:52:15.970Z,32.47
2018-11-27T02:55:16.330Z,32.03
2018-11-27T02:57:59.181Z,29.13
2018-11-27T03:00:50.092Z,29.37
2018-11-27T03:03:33.203Z,27.17
2018-11-27T03:06:24.225Z,30.20
2018-11-27T03:09:09.047Z,28.17
2018-11-27T03:12:00.037Z,30.20
2018-11-27T03:14:42.699Z,31.43
2018-11-27T03:17:33.874Z,30.90
2018-11-27T03:20:24.744Z,30.13
2018-11-27T03:23:08.031Z,33.33
2018-11-27T03:25:58.958Z,33.87
2018-11-27T03:28:49.906Z,34.13
2018-11-27T03:31:40.785Z,32.63
2018-11-27T03:34:31.640Z,33.87
2018-11-27T03:37:22.391Z,35.90
2018-11-27T03:40:31.895Z,30.97
2018-11-27T03:43:14.619Z,31.97
2018-11-27T03:46:05.537Z,31.73
2018-11-27T03:48:48.508Z,35.00
2018-11-27T03:51:39.474Z,33.83
2018-11-27T03:54:22.376Z,33.33
2018-11-27T03:57:13.238Z,34.30
2018-11-27T03:59:56.068Z,34.73
2018-11-27T04:02:47.941Z,34.73
2018-11-27T04:05:39.189Z,38.80
2018-11-27T04:08:30.060Z,34.13
2018-11-27T04:11:20.990Z,37.33
2018-11-27T04:14:11.864Z,35.50
2018-11-27T04:17:02.793Z,33.60
2018-11-27T04:19:53.628Z,33.47
2018-11-27T04:22:45.111Z,36.60
2018-11-27T04:25:36.134Z,32.63
2018-11-27T04:28:27.085Z,36.63
2018-11-27T04:31:18.035Z,34.30
2018-11-27T04:34:08.988Z,36.53
2018-11-27T04:36:59.765Z,34.03
2018-11-27T04:39:42.415Z,35.73
2018-11-27T04:42:33.217Z,32.43
2018-11-27T04:45:19.467Z,35.17
2018-11-27T04:48:10.368Z,34.73
2018-11-27T04:50:53.305Z,40.10
2018-11-27T04:53:44.131Z,39.00
2018-11-27T04:56:34.964Z,39.60
2018-11-27T04:59:25.910Z,35.30
2018-11-27T05:02:16.871Z,35.97
2018-11-27T05:05:08.423Z,33.77
2018-11-27T05:07:59.188Z,37.50
2018-11-27T05:10:50.105Z,38.57
2018-11-27T05:13:41.158Z,37.47
2018-11-27T05:16:31.909Z,34.43
2018-11-27T05:19:41.076Z,33.93
2018-11-27T05:22:32.095Z,37.27
2018-11-27T05:25:23.240Z,40.37
2018-11-27T05:28:14.289Z,41.83
2018-11-27T05:31:05.178Z,35.80
2018-11-27T05:33:56.092Z,40.23
2018-11-27T05:36:47.039Z,40.73
2018-11-27T05:39:38.089Z,35.93
2018-11-27T05:42:29.139Z,34.43
2018-11-27T05:45:21.267Z,37.60
2018-11-27T05:48:12.315Z,38.53
2018-11-27T05:51:03.264Z,41.10
2018-11-27T05:53:54.218Z,37.90
2018-11-27T05:56:35.870Z,42.43
2018-11-27T05:59:26.514Z,40.13
2018-11-27T06:02:09.216Z,37.40
2018-11-27T06:05:00.128Z,34.33
2018-11-27T06:07:43.131Z,39.30
2018-11-27T06:10:34.163Z,38.63
2018-11-27T06:13:17.157Z,41.27
2018-11-27T06:16:08.034Z,35.70
2018-11-27T06:18:50.971Z,38.93
2018-11-27T06:21:42.042Z,38.57
2018-11-27T06:24:25.643Z,37.33
2018-11-27T06:27:16.666Z,37.67
2018-11-27T06:30:13.646Z,38.73
2018-11-27T06:33:04.561Z,43.17
2018-11-27T06:35:55.516Z,38.03
2018-11-27T06:38:46.562Z,37.20
2018-11-27T06:41:37.348Z,40.07
2018-11-27T06:44:28.265Z,44.43
2018-11-27T06:47:19.217Z,39.23
2018-11-27T06:50:12.048Z,35.33
2018-11-27T06:53:01.674Z,36.33
2018-11-27T06:55:52.765Z,37.57
2018-11-27T06:58:43.540Z,42.43
2018-11-27T07:01:34.461Z,37.67
2018-11-27T07:04:25.411Z,41.10
2018-11-27T07:07:16.197Z,40.00
2018-11-27T07:10:10.456Z,43.87
2018-11-27T07:13:38.572Z,48.27
2018-11-27T07:16:29.615Z,57.60
2018-11-27T07:19:20.400Z,57.40
2018-11-27T07:22:11.122Z,50.43
2018-11-27T07:25:02.002Z,58.33
2018-11-27T07:27:53.317Z,66.30
2018-11-27T07:30:36.340Z,69.37
2018-11-27T07:33:27.254Z,70.60
2018-11-27T07:36:18.040Z,74.60
2018-11-27T07:39:09.356Z,72.77
2018-11-27T07:42:00.212Z,90.63
2018-11-27T07:44:51.155Z,100.50
2018-11-27T07:47:42.419Z,106.20
2018-11-27T07:50:33.645Z,99.60
2018-11-27T07:53:24.594Z,86.20
2018-11-27T07:56:15.546Z,84.37
2018-11-27T07:59:06.495Z,81.03
2018-11-27T08:01:57.546Z,71.13
2018-11-27T08:04:48.593Z,79.17
2018-11-27T08:07:31.500Z,73.50
2018-11-27T08:10:23.617Z,68.80
2018-11-27T08:13:14.334Z,71.50
2018-11-27T08:16:05.127Z,74.33
2018-11-27T08:18:56.109Z,74.83
2018-11-27T08:21:46.953Z,67.47
2018-11-27T08:24:37.969Z,77.40
2018-11-27T08:27:29.116Z,66.80
2018-11-27T08:30:23.901Z,69.13
2018-11-27T08:33:07.281Z,69.17
2018-11-27T08:35:58.331Z,65.57
2018-11-27T08:38:49.109Z,62.27
2018-11-27T08:41:40.631Z,69.43
2018-11-27T08:44:30.814Z,68.57
2018-11-27T08:47:21.936Z,79.27
2018-11-27T08:50:14.089Z,76.03
2018-11-27T08:53:06.493Z,56.53
2018-11-27T08:55:57.539Z,60.83
2018-11-27T08:58:48.587Z,55.97
2018-11-27T09:04:36.188Z,55.87
2018-11-27T09:07:18.945Z,53.97
2018-11-27T09:10:28.509Z,59.57
2018-11-27T09:13:19.459Z,49.27
2018-11-27T09:16:10.414Z,47.40
2018-11-27T09:19:01.363Z,47.33
2018-11-27T09:21:52.415Z,47.70
2018-11-27T09:24:43.361Z,42.53
2018-11-27T09:27:34.409Z,57.53
2018-11-27T09:30:26.548Z,47.03
2018-11-27T09:33:17.686Z,43.50
2018-11-27T09:36:00.797Z,64.83
2018-11-27T09:38:51.824Z,63.30
2018-11-27T09:41:34.550Z,57.57
2018-11-27T09:44:25.146Z,48.43
2018-11-27T09:47:07.640Z,44.37
2018-11-27T09:49:58.715Z,41.27
2018-11-27T09:52:41.521Z,43.93
2018-11-27T09:55:32.491Z,50.80
2018-11-27T09:58:15.647Z,52.43
2018-11-27T10:01:06.842Z,45.03
2018-11-27T10:03:49.560Z,39.70
2018-11-27T10:06:40.532Z,43.50
2018-11-27T10:09:31.628Z,36.77
2018-11-27T10:12:22.452Z,40.83
2018-11-27T10:15:31.814Z,38.90
2018-11-27T10:18:22.819Z,37.83
2018-11-27T10:21:13.885Z,30.73
2018-11-27T10:24:04.646Z,32.23
2018-11-27T10:26:55.494Z,30.50
2018-11-27T10:29:46.340Z,25.37
2018-11-27T10:32:37.415Z,26.77
2018-11-27T10:35:36.087Z,28.23
2018-11-27T10:38:18.680Z,30.23
2018-11-27T10:41:09.727Z,25.27
2018-11-27T10:44:00.621Z,25.60
2018-11-27T10:46:51.458Z,24.73
2018-11-27T10:49:42.215Z,28.47
2018-11-27T10:52:33.202Z,26.53
2018-11-27T10:55:24.583Z,23.67
2018-11-27T10:58:15.693Z,23.47
2018-11-27T11:01:24.694Z,24.47
2018-11-27T11:04:15.640Z,24.57
2018-11-27T11:07:06.873Z,26.17
2018-11-27T11:09:49.614Z,22.70
2018-11-27T11:12:40.600Z,25.47
2018-11-27T11:15:22.212Z,23.10
2018-11-27T11:18:13.161Z,22.57
2018-11-27T11:20:56.077Z,20.50
2018-11-27T11:23:47.101Z,23.07
2018-11-27T11:26:28.662Z,24.93
2018-11-27T11:29:19.562Z,24.10
2018-11-27T11:32:01.226Z,24.30
2018-11-27T11:34:42.878Z,24.27
2018-11-27T11:37:24.581Z,20.17
2018-11-27T11:40:19.773Z,19.23
2018-11-27T11:43:02.607Z,19.47
2018-11-27T11:45:53.711Z,20.40
2018-11-27T11:48:36.795Z,19.27
2018-11-27T11:54:34.332Z,19.80
2018-11-27T11:57:25.106Z,16.13
2018-11-27T12:00:37.361Z,17.57
2018-11-27T12:03:28.315Z,18.83
2018-11-27T12:06:19.262Z,16.80
2018-11-27T12:09:11.299Z,13.93
2018-11-27T12:11:54.823Z,16.57
2018-11-27T12:14:45.574Z,17.30
2018-11-27T12:17:36.579Z,16.73
2018-11-27T12:20:27.530Z,15.83
2018-11-27T12:23:18.409Z,14.07
2018-11-27T12:26:09.259Z,14.83
2018-11-27T12:29:00.281Z,12.37
2018-11-27T12:31:51.054Z,14.53
2018-11-27T12:34:33.981Z,9.97
2018-11-27T12:37:24.913Z,11.00
2018-11-27T12:40:11.610Z,9.37
2018-11-27T12:45:58.747Z,14.07
2018-11-27T12:48:42.429Z,15.57
2018-11-27T12:51:33.329Z,12.10
2018-11-27T12:54:24.379Z,13.90
2018-11-27T12:57:15.427Z,13.13
2018-11-27T13:00:10.114Z,10.60
2018-11-27T13:03:01.006Z,11.67
2018-11-27T13:05:52.016Z,8.70
2018-11-27T13:08:43.059Z,9.40
2018-11-27T13:11:34.109Z,6.67
2018-11-27T13:14:25.159Z,8.87
2018-11-27T13:17:08.329Z,8.60
2018-11-27T13:19:59.294Z,8.30
2018-11-27T13:22:41.907Z,8.27
2018-11-27T13:25:32.840Z,9.33
2018-11-27T13:28:15.999Z,7.80
2018-11-27T13:31:26.631Z,9.23
2018-11-27T13:34:12.952Z,7.07
2018-11-27T13:37:03.757Z,8.37
2018-11-27T13:39:54.673Z,11.10
2018-11-27T13:42:45.420Z,7.17
2018-11-27T13:45:36.358Z,7.60
2018-11-27T13:48:19.158Z,6.83
2018-11-27T13:51:10.111Z,8.83
2018-11-27T13:53:53.145Z,7.53
2018-11-27T13:56:44.150Z,6.33
2018-11-27T13:59:27.510Z,8.67
2018-11-27T14:02:18.412Z,10.33
2018-11-27T14:05:01.235Z,9.17
2018-11-27T14:07:52.148Z,9.83
2018-11-27T14:10:35.207Z,11.83
2018-11-27T14:13:25.999Z,12.17
2018-11-27T14:16:09.222Z,7.50
2018-11-27T14:19:00.034Z,10.70
2018-11-27T14:21:51.045Z,11.43
2018-11-27T14:24:42.160Z,10.77
2018-11-27T14:27:33.045Z,11.43
2018-11-27T14:30:25.470Z,8.60
2018-11-27T14:33:08.071Z,8.20
2018-11-27T14:35:59.115Z,8.97
2018-11-27T14:38:41.604Z,8.97
2018-11-27T14:41:32.558Z,12.77
2018-11-27T14:44:15.573Z,13.73
2018-11-27T14:50:04.205Z,11.87
2018-11-27T14:52:45.685Z,14.10
2018-11-27T14:55:37.480Z,14.73
2018-11-27T14:58:28.527Z,10.17
2018-11-27T15:04:20.651Z,9.17
2018-11-27T15:07:11.702Z,9.33
2018-11-27T15:10:02.652Z,10.73
2018-11-27T15:12:53.601Z,9.37
2018-11-27T15:15:44.397Z,10.37
2018-11-27T15:21:23.911Z,9.27
2018-11-27T15:24:14.946Z,7.87
2018-11-27T15:27:07.270Z,8.73
2018-11-27T15:29:56.846Z,9.90
2018-11-27T15:32:38.462Z,9.27
2018-11-27T15:35:29.244Z,13.37
2018-11-27T15:38:11.763Z,10.50
2018-11-27T15:41:02.855Z,10.97
2018-11-27T15:43:45.994Z,8.40
2018-11-27T15:46:37.085Z,9.43
2018-11-27T15:49:20.122Z,7.80
2018-11-27T15:52:11.024Z,9.47
2018-11-27T15:54:53.675Z,9.23
2018-11-27T15:57:44.570Z,13.47
2018-11-27T16:00:27.657Z,10.17
2018-11-27T16:03:18.533Z,10.50
2018-11-27T16:06:09.291Z,10.57
2018-11-27T16:09:00.211Z,8.97
2018-11-27T16:11:51.016Z,24.23
2018-11-27T16:14:41.750Z,15.37
2018-11-27T16:17:32.670Z,11.87
2018-11-27T16:20:23.663Z,11.30
2018-11-27T16:23:14.580Z,10.83
2018-11-27T16:26:05.525Z,13.50
2018-11-27T16:28:48.502Z,12.30
2018-11-27T16:31:39.555Z,13.00
2018-11-27T16:34:22.387Z,13.43
2018-11-27T16:37:13.297Z,17.63
2018-11-27T16:39:54.858Z,15.13
2018-11-27T16:42:45.793Z,16.67
2018-11-27T16:45:28.343Z,20.63
2018-11-27T16:48:19.240Z,18.70
2018-11-27T16:51:00.796Z,16.90
2018-11-27T16:53:51.632Z,16.27
2018-11-27T16:56:33.332Z,18.40
2018-11-27T16:59:24.157Z,21.73
2018-11-27T17:02:07.161Z,19.30
2018-11-27T17:04:58.167Z,20.83
2018-11-27T17:07:49.051Z,21.63
2018-11-27T17:10:41.150Z,19.67
2018-11-27T17:13:50.677Z,21.17
2018-11-27T17:16:41.728Z,19.80
2018-11-27T17:19:32.609Z,21.93
2018-11-27T17:22:23.630Z,25.20
2018-11-27T17:25:14.583Z,25.83
2018-11-27T17:28:25.386Z,23.77
2018-11-27T17:31:17.418Z,25.60
2018-11-27T17:34:11.051Z,24.37
2018-11-27T17:37:01.978Z,25.60
2018-11-27T17:39:53.020Z,27.90
2018-11-27T17:42:43.806Z,31.67
2018-11-27T17:45:34.824Z,29.47
2018-11-27T17:48:25.614Z,32.63
2018-11-27T17:51:16.726Z,30.80
2018-11-27T17:54:07.771Z,28.93
2018-11-27T17:56:58.821Z,27.20
2018-11-27T17:59:49.574Z,25.60
2018-11-27T18:02:32.623Z,29.53
2018-11-27T18:05:23.543Z,32.00
2018-11-27T18:08:14.562Z,36.77
2018-11-27T18:11:05.510Z,44.70
2018-11-27T18:13:56.461Z,63.20
2018-11-27T18:16:47.344Z,65.13
2018-11-27T18:19:38.462Z,64.33
2018-11-27T18:22:29.409Z,60.23
2018-11-27T18:25:12.476Z,58.43
2018-11-27T18:28:03.348Z,52.67
2018-11-27T18:30:46.084Z,52.47
2018-11-27T18:33:36.989Z,60.23
2018-11-27T18:36:27.923Z,78.50
2018-11-27T18:39:18.623Z,78.10
2018-11-27T18:42:09.243Z,60.37
2018-11-27T18:45:00.030Z,62.30
2018-11-27T18:47:50.887Z,67.37
2018-11-27T18:50:41.806Z,79.40
2018-11-27T18:53:32.759Z,60.73
2018-11-27T18:56:15.597Z,61.53
2018-11-27T18:59:06.498Z,55.50
2018-11-27T19:01:49.231Z,65.30
2018-11-27T19:04:40.216Z,60.70
2018-11-27T19:07:22.840Z,66.50
2018-11-27T19:10:14.967Z,61.70
2018-11-27T19:12:57.631Z,63.03
2018-11-27T19:15:49.665Z,64.47
2018-11-27T19:18:32.559Z,66.33
2018-11-27T19:21:23.433Z,65.77
2018-11-27T19:24:06.402Z,59.43
2018-11-27T19:26:57.368Z,61.63
2018-11-27T19:29:48.250Z,57.13
2018-11-27T19:32:39.169Z,57.23
2018-11-27T19:35:30.124Z,51.77
2018-11-27T19:38:21.954Z,47.80
2018-11-27T19:41:12.906Z,41.33
2018-11-27T19:44:03.688Z,43.40
2018-11-27T19:46:54.544Z,38.53
2018-11-27T19:49:45.458Z,48.80
2018-11-27T19:52:36.440Z,45.23
2018-11-27T19:55:27.558Z,41.17
2018-11-27T19:58:18.495Z,46.10
2018-11-27T20:01:09.461Z,51.83
2018-11-27T20:04:00.603Z,51.63
2018-11-27T20:06:51.561Z,48.57
2018-11-27T20:09:43.331Z,49.00
2018-11-27T20:12:33.653Z,47.63
2018-11-27T20:15:26.479Z,51.13
2018-11-27T20:18:17.563Z,56.07
2018-11-27T20:21:09.067Z,56.73
2018-11-27T20:24:00.171Z,59.90
2018-11-27T20:26:51.421Z,48.03
2018-11-27T20:29:34.283Z,56.63
2018-11-27T20:32:25.494Z,51.20
2018-11-27T20:35:17.023Z,50.90
2018-11-27T20:38:10.093Z,58.90
2018-11-27T20:41:01.169Z,61.00
2018-11-27T20:43:52.343Z,63.97
2018-11-27T20:46:43.294Z,76.23
2018-11-27T20:49:34.339Z,83.57
2018-11-27T20:52:25.271Z,99.80
2018-11-27T20:55:16.339Z,121.57
2018-11-27T20:58:07.546Z,107.53
2018-11-27T21:00:58.837Z,91.47
2018-11-27T21:03:42.122Z,79.13
2018-11-27T21:06:33.149Z,74.43
2018-11-27T21:09:16.533Z,71.57
2018-11-27T21:12:07.783Z,79.40
2018-11-27T21:14:51.210Z,308.07
2018-11-27T21:17:42.224Z,151.97
2018-11-27T21:20:25.314Z,165.77
2018-11-27T21:23:16.348Z,136.83
2018-11-27T21:26:17.512Z,124.27
2018-11-27T21:29:00.185Z,117.17
2018-11-27T21:34:39.176Z,84.90
2018-11-27T21:37:30.211Z,86.37
2018-11-27T21:40:18.795Z,75.30
2018-11-27T21:43:10.534Z,87.83
2018-11-27T21:45:53.649Z,83.10
2018-11-27T21:48:44.667Z,71.07
2018-11-27T21:51:27.902Z,71.33
2018-11-27T21:54:18.900Z,71.00
2018-11-27T21:57:01.475Z,102.67
2018-11-27T21:59:52.385Z,93.20
2018-11-27T22:02:34.473Z,71.67
2018-11-27T22:05:25.503Z,66.30
2018-11-27T22:08:08.677Z,69.03
2018-11-27T22:10:59.729Z,79.30
2018-11-27T22:13:42.659Z,78.77
2018-11-27T22:16:33.668Z,79.97
2018-11-27T22:19:15.234Z,78.17
2018-11-27T22:22:06.340Z,87.70
2018-11-27T22:24:49.089Z,83.37
2018-11-27T22:27:39.970Z,96.63
2018-11-27T22:30:23.011Z,90.10
2018-11-27T22:33:13.807Z,80.70
2018-11-27T22:36:04.588Z,73.03
2018-11-27T22:38:55.609Z,68.27
2018-11-27T22:41:46.658Z,75.43
2018-11-27T22:44:37.543Z,64.90
2018-11-27T22:47:28.459Z,64.70
2018-11-27T22:50:20.294Z,58.13
2018-11-27T22:53:11.581Z,59.07
2018-11-27T22:56:02.591Z,61.57
2018-11-27T22:58:53.539Z,62.77
2018-11-27T23:01:44.426Z,67.70
2018-11-27T23:04:35.451Z,71.47
2018-11-27T23:07:36.803Z,70.63
2018-11-27T23:10:28.869Z,72.13
2018-11-27T23:13:19.990Z,97.80
2018-11-27T23:16:10.782Z,94.70
2018-11-27T23:19:01.695Z,65.97
2018-11-27T23:21:52.647Z,65.97
2018-11-27T23:24:43.692Z,62.20
2018-11-27T23:27:34.744Z,65.27
2018-11-27T23:30:26.675Z,64.73
2018-11-27T23:33:17.721Z,66.93
2018-11-27T23:36:08.866Z,70.13
2018-11-27T23:38:51.982Z,75.97
2018-11-27T23:41:43.001Z,75.43
2018-11-27T23:44:26.086Z,61.17
2018-11-27T23:47:17.136Z,63.63
2018-11-27T23:49:59.720Z,61.57
2018-11-27T23:52:50.618Z,52.30
2018-11-27T23:55:33.161Z,46.83
2018-11-27T23:58:42.152Z,42.33
